Time;durP1;ratioP1;P1;durP2;ratioP2;P2;SDS_P1;SDS_P2;PMS_P1;PMS_P2;Temp;Humidity;BMP_temperature;BMP_pressure;BME280_temperature;BME280_humidity;BME280_pressure;Samples;Min_cycle;Max_cycle;Signal;HPM_P1;HPM_P2
2023/07/07 00:01:38;;;;;;;2.28;1.42;;;;;;;17.18;49.85;97466.34;5983333;23;20004;-80
2023/07/07 00:04:03;;;;;;;2.05;1.67;;;;;;;17.16;49.57;97472.97;6017331;23;20843;-80
2023/07/07 00:06:29;;;;;;;2.40;1.95;;;;;;;17.19;50.49;97488.22;6017156;23;20066;-80
2023/07/07 00:08:55;;;;;;;2.38;1.70;;;;;;;17.16;50.15;97479.00;5895361;23;20796;-80
2023/07/07 00:11:21;;;;;;;3.83;2.25;;;;;;;17.14;51.17;97481.16;6015396;23;20062;-79
2023/07/07 00:13:46;;;;;;;2.90;2.25;;;;;;;17.08;51.15;97460.44;5983157;23;20015;-79
2023/07/07 00:16:13;;;;;;;3.05;2.13;;;;;;;17.04;51.12;97466.25;6040945;23;20008;-80
2023/07/07 00:18:39;;;;;;;2.33;2.13;;;;;;;16.99;50.89;97478.66;5895115;23;20074;-81
2023/07/07 00:21:04;;;;;;;5.05;2.22;;;;;;;16.88;50.67;97470.09;5982438;23;20418;-80
2023/07/07 00:23:30;;;;;;;3.00;2.38;;;;;;;16.88;51.02;97464.84;5863592;23;20541;-80
2023/07/07 00:26:05;;;;;;;2.72;2.10;;;;;;;16.95;51.19;97472.41;5863454;23;20000;-80
2023/07/07 00:28:31;;;;;;;2.38;2.10;;;;;;;16.85;51.16;97476.69;5983040;23;20123;-81
2023/07/07 00:30:56;;;;;;;4.07;2.30;;;;;;;16.73;52.08;97475.47;5862770;23;20008;-80
2023/07/07 00:33:22;;;;;;;2.58;1.90;;;;;;;16.68;52.92;97481.53;5983638;23;20092;-80
2023/07/07 00:35:48;;;;;;;2.58;1.92;;;;;;;16.62;51.83;97482.63;6016433;23;20043;-80
2023/07/07 00:38:15;;;;;;;3.20;2.05;;;;;;;16.60;52.19;97479.50;6016523;23;20011;-80
2023/07/07 00:40:40;;;;;;;4.15;2.22;;;;;;;16.62;52.58;97480.00;6007630;23;20082;-81
2023/07/07 00:43:11;;;;;;;2.72;2.40;;;;;;;16.67;52.44;97480.78;6007406;23;20449;-80
2023/07/07 00:45:36;;;;;;;2.83;2.50;;;;;;;16.51;52.31;97481.94;5863473;23;20013;-80
2023/07/07 00:48:03;;;;;;;2.33;2.05;;;;;;;16.64;52.27;97488.44;5862391;23;20008;-81
2023/07/07 00:50:41;;;;;;;2.70;2.10;;;;;;;16.66;52.02;97481.03;5886362;23;20008;-80
2023/07/07 00:53:07;;;;;;;2.75;2.55;;;;;;;16.57;51.95;97486.13;6005858;23;20598;-80
2023/07/07 00:55:38;;;;;;;4.05;2.10;;;;;;;16.61;53.36;97481.84;6015533;23;20042;-79
2023/07/07 00:58:08;;;;;;;3.17;2.13;;;;;;;16.52;53.52;97485.34;5917521;23;20036;-81
2023/07/07 01:00:34;;;;;;;2.67;2.10;;;;;;;16.47;52.60;97484.34;5989987;23;20494;-80
2023/07/07 01:03:01;;;;;;;2.75;2.30;;;;;;;16.25;52.95;97460.31;5871984;23;20718;-80
2023/07/07 01:05:29;;;;;;;2.83;2.00;;;;;;;16.28;53.08;97459.78;6010531;23;20154;-80
2023/07/07 01:07:56;;;;;;;3.28;2.22;;;;;;;16.35;52.95;97483.09;6036396;23;20261;-80
2023/07/07 01:10:22;;;;;;;2.55;2.30;;;;;;;16.17;53.19;97463.53;6003580;23;20214;-80
2023/07/07 01:12:48;;;;;;;2.90;2.60;;;;;;;16.28;53.21;97475.56;5979276;23;20255;-80
2023/07/07 01:15:14;;;;;;;3.78;3.08;;;;;;;16.14;52.80;97470.09;6002496;23;20234;-80
2023/07/07 01:18:16;;;;;;;2.70;2.17;;;;;;;16.28;53.39;97476.34;6003320;23;20129;-80
2023/07/07 01:21:04;;;;;;;3.20;2.20;;;;;;;16.26;53.79;97482.91;5939248;23;20254;-80
2023/07/07 01:23:49;;;;;;;2.67;2.15;;;;;;;16.15;53.46;97481.41;6031891;23;20224;-80
2023/07/07 01:26:14;;;;;;;;;;;;;;;16.22;53.75;97485.28;5980030;23;20187;-80
2023/07/07 01:28:58;;;;;;;2.85;2.00;;;;;;;16.12;53.95;97482.72;6003795;23;20363;-80
2023/07/07 01:31:28;;;;;;;2.55;2.20;;;;;;;16.06;53.69;97470.69;6027352;23;20729;-80
2023/07/07 01:33:54;;;;;;;2.72;2.50;;;;;;;15.99;54.45;97472.81;6003695;23;20226;-80
2023/07/07 01:36:19;;;;;;;2.65;2.28;;;;;;;15.97;53.68;97470.50;6037908;23;20196;-81
2023/07/07 01:38:46;;;;;;;2.95;2.30;;;;;;;16.05;53.88;97474.38;6038257;23;20184;-80
2023/07/07 01:41:20;;;;;;;4.50;2.47;;;;;;;16.04;54.47;97488.56;5979826;23;20129;-80
2023/07/07 01:44:04;;;;;;;3.35;2.28;;;;;;;15.98;53.44;97485.19;6004122;23;20288;-79
2023/07/07 01:46:40;;;;;;;2.90;2.10;;;;;;;16.02;54.40;97480.97;5941210;23;20184;-80
2023/07/07 01:49:12;;;;;;;2.70;2.50;;;;;;;15.96;54.00;97483.91;6013776;23;20188;-80
2023/07/07 01:51:44;;;;;;;2.80;2.22;;;;;;;15.98;53.20;97482.56;6012756;23;20191;-80
2023/07/07 01:54:11;;;;;;;4.70;2.20;;;;;;;15.87;53.60;97476.59;6037007;23;20219;-80
2023/07/07 01:56:37;;;;;;;3.28;2.08;;;;;;;15.95;53.62;97482.31;6003151;23;20191;-80
2023/07/07 01:59:03;;;;;;;3.90;2.10;;;;;;;15.94;53.30;97478.91;6003252;23;20187;-80
2023/07/07 02:01:29;;;;;;;3.53;2.22;;;;;;;15.96;52.88;97478.63;6004486;23;20267;-80
2023/07/07 02:03:54;;;;;;;2.40;1.80;;;;;;;15.95;53.99;97479.69;6007269;23;20196;-80
2023/07/07 02:06:19;;;;;;;3.30;2.53;;;;;;;15.93;53.30;97476.56;6008392;23;20605;-80
2023/07/07 02:08:45;;;;;;;3.10;2.30;;;;;;;15.72;52.60;97480.03;5972669;23;20270;-80
2023/07/07 02:11:11;;;;;;;4.28;2.58;;;;;;;15.76;53.59;97472.44;6007220;23;20644;-79
2023/07/07 02:13:37;;;;;;;2.15;1.92;;;;;;;15.97;52.82;97486.25;5997894;23;20201;-81
2023/07/07 02:16:03;;;;;;;2.85;2.20;;;;;;;15.96;52.53;97483.91;6007006;23;20252;-80
2023/07/07 02:18:28;;;;;;;3.17;2.47;;;;;;;15.95;53.28;97482.31;5973275;23;20224;-80
2023/07/07 02:20:53;;;;;;;2.50;2.03;;;;;;;15.87;53.42;97484.47;5972713;23;20197;-81
2023/07/07 02:23:19;;;;;;;2.40;2.20;;;;;;;15.82;52.88;97487.09;5973798;23;20755;-80
2023/07/07 02:25:44;;;;;;;4.60;2.50;;;;;;;15.84;54.11;97497.34;6006863;23;20181;-80
2023/07/07 02:28:10;;;;;;;2.38;2.00;;;;;;;15.74;53.70;97479.75;5972623;23;20295;-80
2023/07/07 02:30:36;;;;;;;4.25;2.28;;;;;;;15.75;53.94;97484.00;6005185;23;20186;-80
2023/07/07 02:33:01;;;;;;;3.13;2.30;;;;;;;15.68;54.19;97486.09;5983959;23;20189;-80
2023/07/07 02:35:26;;;;;;;2.67;2.10;;;;;;;15.62;53.93;97481.91;5996441;23;20259;-80
2023/07/07 02:37:52;;;;;;;3.05;2.58;;;;;;;15.58;53.88;97483.53;5974546;23;20311;-81
2023/07/07 02:40:17;;;;;;;3.13;2.20;;;;;;;15.51;54.13;97474.09;5999103;23;20351;-80
2023/07/07 02:42:43;;;;;;;4.13;2.80;;;;;;;15.47;54.09;97482.75;5998416;23;20296;-80
2023/07/07 02:45:08;;;;;;;2.33;2.13;;;;;;;15.48;54.68;97500.09;5997217;23;20593;-80
2023/07/07 02:47:34;;;;;;;4.05;2.40;;;;;;;15.41;55.60;97484.63;5998653;23;20588;-80
2023/07/07 02:49:59;;;;;;;2.65;2.10;;;;;;;15.33;54.89;97478.06;5972795;23;20235;-80
2023/07/07 02:52:27;;;;;;;3.72;2.60;;;;;;;15.27;56.00;97486.25;5973269;23;20233;-80
2023/07/07 02:54:52;;;;;;;3.58;2.60;;;;;;;15.32;55.16;97494.88;5973996;23;20332;-80
2023/07/07 02:57:17;;;;;;;4.78;2.67;;;;;;;15.08;55.59;97492.06;6007370;23;20185;-80
2023/07/07 02:59:43;;;;;;;2.70;2.20;;;;;;;15.13;55.32;97493.84;6007097;23;20183;-81
2023/07/07 03:02:08;;;;;;;3.55;2.70;;;;;;;15.07;56.04;97494.94;5997723;23;20377;-80
2023/07/07 03:04:34;;;;;;;2.53;2.20;;;;;;;15.12;56.25;97503.56;6007038;23;20247;-80
2023/07/07 03:06:59;;;;;;;3.25;2.85;;;;;;;15.00;56.68;97494.44;5981749;23;20142;-80
2023/07/07 03:09:25;;;;;;;3.00;2.50;;;;;;;15.03;55.80;97494.69;6007715;23;20177;-80
2023/07/07 03:11:50;;;;;;;2.92;2.47;;;;;;;15.07;55.33;97484.44;5951020;23;20237;-80
2023/07/07 03:14:19;;;;;;;4.60;2.70;;;;;;;15.15;56.00;97497.81;5997529;23;20234;-80
2023/07/07 03:16:51;;;;;;;2.47;2.05;;;;;;;15.05;55.94;97492.56;5973511;23;20224;-80
2023/07/07 03:19:17;;;;;;;3.58;2.33;;;;;;;15.00;56.17;97494.44;5997860;23;20160;-80
2023/07/07 03:21:43;;;;;;;3.88;2.85;;;;;;;14.95;56.40;97484.72;6007274;23;20188;-80
2023/07/07 03:24:08;;;;;;;3.15;2.67;;;;;;;14.96;56.79;97494.19;6005322;23;20233;-80
2023/07/07 03:26:34;;;;;;;5.00;2.83;;;;;;;14.95;56.50;97488.13;6006765;23;20157;-80
2023/07/07 03:29:02;;;;;;;3.58;2.30;;;;;;;14.99;56.13;97493.63;5997749;23;20595;-80
2023/07/07 03:31:29;;;;;;;2.53;2.17;;;;;;;15.02;56.63;97489.69;5996079;23;20176;-80
2023/07/07 03:33:57;;;;;;;3.95;2.78;;;;;;;15.13;55.91;97486.81;5996523;23;20268;-80
2023/07/07 03:36:26;;;;;;;2.90;2.35;;;;;;;15.10;55.88;97476.84;5996845;23;20253;-81
2023/07/07 03:38:51;;;;;;;3.78;2.67;;;;;;;15.20;55.06;97485.72;5974426;23;20534;-80
2023/07/07 03:41:19;;;;;;;2.83;2.40;;;;;;;15.23;56.04;97493.06;5982723;23;20180;-80
2023/07/07 03:43:45;;;;;;;3.83;2.42;;;;;;;15.19;55.15;97481.53;6006151;23;20616;-80
2023/07/07 03:46:18;;;;;;;3.00;2.58;;;;;;;15.33;56.54;97490.41;6007730;23;20228;-80
2023/07/07 03:48:45;;;;;;;3.28;2.75;;;;;;;15.25;55.97;97491.75;5912399;23;20601;-80
2023/07/07 03:51:12;;;;;;;3.53;2.40;;;;;;;15.30;56.14;97497.00;6006440;23;20185;-80
2023/07/07 03:53:38;;;;;;;3.08;2.38;;;;;;;15.33;55.85;97498.28;6031692;23;20263;-80
2023/07/07 03:56:04;;;;;;;4.10;2.45;;;;;;;15.48;54.33;97495.59;6006274;23;20130;-80
2023/07/07 03:58:30;;;;;;;3.45;2.65;;;;;;;15.47;54.79;97491.44;6006493;23;20246;-80
2023/07/07 04:01:03;;;;;;;3.22;2.30;;;;;;;15.52;55.60;97504.53;5973294;23;20229;-80
2023/07/07 04:03:30;;;;;;;3.53;2.17;;;;;;;15.47;55.20;97507.19;5997050;23;20200;-79
2023/07/07 04:05:55;;;;;;;2.83;2.47;;;;;;;15.49;55.13;97502.44;5950876;23;20129;-79
2023/07/07 04:08:25;;;;;;;4.90;2.95;;;;;;;15.57;56.36;97502.94;5973243;23;20165;-80
2023/07/07 04:10:59;;;;;;;3.22;2.63;;;;;;;15.68;56.76;97496.59;6003022;23;20759;-79
2023/07/07 04:13:25;;;;;;;3.95;2.67;;;;;;;15.64;56.43;97500.81;5982711;23;20260;-80
2023/07/07 04:16:10;;;;;;;2.95;2.55;;;;;;;15.76;55.90;97501.31;6006545;23;20184;-79
2023/07/07 04:18:36;;;;;;;3.25;2.72;;;;;;;15.71;56.61;97503.91;5912339;23;20164;-79
2023/07/07 04:21:07;;;;;;;3.92;2.70;;;;;;;15.76;56.64;97511.81;6006000;23;20184;-80
2023/07/07 04:23:34;;;;;;;2.83;2.53;;;;;;;15.76;56.46;97506.56;5973352;23;20200;-79
2023/07/07 04:26:00;;;;;;;5.38;3.55;;;;;;;15.79;55.74;97513.13;5949600;23;20216;-80
2023/07/07 04:28:25;;;;;;;3.85;2.45;;;;;;;15.77;56.40;97508.13;5973579;23;20656;-80
2023/07/07 04:30:56;;;;;;;3.08;2.47;;;;;;;15.81;56.19;97500.50;5953256;23;20252;-80
2023/07/07 04:33:22;;;;;;;3.45;2.50;;;;;;;15.90;55.84;97509.38;6010032;23;20189;-80
2023/07/07 04:35:55;;;;;;;3.08;2.20;;;;;;;16.07;54.94;97509.03;6008959;23;20161;-80
2023/07/07 04:38:23;;;;;;;3.30;2.70;;;;;;;16.11;55.50;97504.81;5976267;23;20176;-80
2023/07/07 04:40:49;;;;;;;3.28;2.40;;;;;;;16.10;54.54;97497.97;6007654;23;20240;-80
2023/07/07 04:43:14;;;;;;;3.13;2.58;;;;;;;16.12;55.77;97495.09;6000938;23;20657;-80
2023/07/07 04:45:39;;;;;;;3.10;2.63;;;;;;;16.27;54.33;97511.53;5976518;23;20295;-79
2023/07/07 04:48:05;;;;;;;3.45;2.40;;;;;;;16.39;53.63;97505.16;5976417;23;20256;-80
2023/07/07 04:50:34;;;;;;;2.78;2.58;;;;;;;16.60;53.32;97513.69;5976276;23;20544;-80
2023/07/07 04:52:59;;;;;;;4.35;2.67;;;;;;;16.64;52.55;97510.22;5999379;23;20307;-80
2023/07/07 04:55:25;;;;;;;3.42;2.83;;;;;;;16.74;52.94;97508.56;6007183;23;20146;-79
2023/07/07 04:57:50;;;;;;;4.47;3.03;;;;;;;16.85;53.07;97515.34;5975037;23;20097;-80
2023/07/07 05:00:16;;;;;;;3.60;2.50;;;;;;;16.90;52.80;97514.53;5912033;23;20192;-80
2023/07/07 05:02:41;;;;;;;3.90;2.60;;;;;;;16.99;53.05;97511.00;5977233;23;20496;-80
2023/07/07 05:05:07;;;;;;;3.42;2.35;;;;;;;17.06;52.24;97512.53;5998396;23;20248;-80
2023/07/07 05:07:32;;;;;;;3.17;2.75;;;;;;;17.17;51.55;97512.16;5974777;23;20154;-80
2023/07/07 05:09:57;;;;;;;3.30;2.35;;;;;;;17.33;51.28;97510.16;5998203;23;20292;-80
2023/07/07 05:12:23;;;;;;;2.80;2.30;;;;;;;17.55;51.39;97527.31;5974535;23;20340;-80
2023/07/07 05:14:51;;;;;;;3.15;2.50;;;;;;;17.68;51.14;97523.97;6007591;23;20204;-80
2023/07/07 05:17:16;;;;;;;4.90;2.47;;;;;;;17.74;50.71;97525.50;6006992;23;20235;-80
2023/07/07 05:19:42;;;;;;;2.65;2.17;;;;;;;17.85;50.80;97526.13;6006611;23;20145;-80
2023/07/07 05:22:07;;;;;;;3.28;2.40;;;;;;;17.90;50.67;97520.06;5951752;23;20595;-80
2023/07/07 05:24:33;;;;;;;2.85;2.55;;;;;;;17.99;50.63;97522.84;6009607;23;20618;-81
2023/07/07 05:26:58;;;;;;;3.92;2.50;;;;;;;18.08;50.10;97529.84;6008836;23;20156;-80
2023/07/07 05:29:25;;;;;;;3.35;3.05;;;;;;;18.06;49.50;97516.16;5975372;23;20589;-80
2023/07/07 05:31:50;;;;;;;3.17;2.80;;;;;;;18.21;50.13;97524.94;6000460;23;20317;-80
2023/07/07 05:34:16;;;;;;;3.25;2.08;;;;;;;18.31;49.56;97536.09;5953423;23;20233;-81
2023/07/07 05:36:41;;;;;;;3.67;2.30;;;;;;;18.34;49.22;97526.84;5985006;23;20242;-80
2023/07/07 05:39:07;;;;;;;2.75;2.15;;;;;;;18.52;49.53;97539.25;5974015;23;20448;-80
2023/07/07 05:41:33;;;;;;;2.80;2.28;;;;;;;18.71;49.10;97547.13;6008811;23;20162;-80
2023/07/07 05:43:58;;;;;;;2.85;2.53;;;;;;;18.75;49.16;97530.72;6008315;23;20239;-80
2023/07/07 05:46:24;;;;;;;2.67;2.42;;;;;;;19.01;48.86;97541.66;6008092;23;20178;-80
2023/07/07 05:48:49;;;;;;;2.60;2.03;;;;;;;19.17;48.99;97537.69;5999518;23;20188;-81
2023/07/07 05:51:17;;;;;;;3.13;2.30;;;;;;;19.28;48.21;97533.03;5985422;23;20648;-80
2023/07/07 05:53:43;;;;;;;3.00;2.25;;;;;;;19.45;48.24;97533.22;6007406;23;20343;-80
2023/07/07 05:56:17;;;;;;;2.50;2.30;;;;;;;19.64;47.17;97538.41;5974519;23;20204;-80
2023/07/07 05:58:42;;;;;;;3.58;2.35;;;;;;;19.70;47.25;97531.16;6007939;23;20267;-80
2023/07/07 06:01:10;;;;;;;4.07;2.70;;;;;;;19.93;47.68;97524.13;5973816;23;20189;-79
2023/07/07 06:03:37;;;;;;;2.58;2.10;;;;;;;20.03;47.90;97531.03;6005426;23;20564;-80
2023/07/07 06:06:02;;;;;;;3.13;2.20;;;;;;;20.14;47.80;97531.63;5999606;23;20169;-80
2023/07/07 06:08:28;;;;;;;3.80;2.30;;;;;;;20.30;46.90;97522.25;6009704;23;20185;-80
2023/07/07 06:10:53;;;;;;;3.65;2.30;;;;;;;20.42;46.71;97520.94;5976236;23;20258;-80
2023/07/07 06:13:23;;;;;;;2.70;2.47;;;;;;;20.53;46.34;97519.66;6000730;23;20330;-80
2023/07/07 06:15:50;;;;;;;3.63;2.28;;;;;;;20.85;45.96;97523.91;6003706;23;20196;-80
2023/07/07 06:18:16;;;;;;;3.05;2.40;;;;;;;21.07;45.56;97525.75;5974619;23;20224;-80
2023/07/07 06:20:46;;;;;;;2.88;2.22;;;;;;;21.37;45.02;97531.34;5999473;23;20293;-80
2023/07/07 06:23:12;;;;;;;4.70;2.35;;;;;;;21.51;44.68;97532.03;6008866;23;20330;-80
2023/07/07 06:25:37;;;;;;;3.58;2.13;;;;;;;21.66;44.07;97520.25;5986203;23;20282;-79
2023/07/07 06:28:03;;;;;;;3.90;2.55;;;;;;;21.84;42.87;97526.34;5978674;23;20344;-81
2023/07/07 06:30:31;;;;;;;2.95;2.65;;;;;;;21.95;42.71;97536.66;5986751;23;20539;-80
2023/07/07 06:32:58;;;;;;;2.80;2.47;;;;;;;22.05;43.17;97537.16;5980050;23;20269;-80
2023/07/07 06:35:25;;;;;;;5.78;2.45;;;;;;;22.22;42.32;97525.75;5980187;23;20263;-81
2023/07/07 06:37:50;;;;;;;2.67;2.28;;;;;;;22.50;41.71;97530.00;6006963;23;20274;-81
2023/07/07 06:40:16;;;;;;;3.10;2.45;;;;;;;22.62;41.14;97528.28;5977111;23;20126;-80
2023/07/07 06:42:41;;;;;;;3.33;2.08;;;;;;;22.74;40.84;97534.81;6015999;23;20638;-81
2023/07/07 06:45:07;;;;;;;2.63;2.20;;;;;;;22.95;40.66;97541.03;5988619;23;20528;-81
2023/07/07 06:47:32;;;;;;;2.78;2.35;;;;;;;23.02;40.49;97531.81;6014381;23;20228;-81
2023/07/07 06:49:58;;;;;;;2.70;2.25;;;;;;;23.30;39.87;97534.88;6012871;23;20199;-81
2023/07/07 06:52:23;;;;;;;2.90;2.40;;;;;;;23.53;39.58;97527.44;5977348;23;20638;-80
2023/07/07 06:54:48;;;;;;;3.80;2.30;;;;;;;23.80;39.04;97541.34;6011234;23;20150;-81
2023/07/07 06:57:14;;;;;;;2.83;2.42;;;;;;;23.95;39.07;97538.16;6002449;23;20673;-81
2023/07/07 06:59:39;;;;;;;3.35;2.13;;;;;;;24.12;38.38;97538.03;5987600;23;20311;-81
2023/07/07 07:02:06;;;;;;;3.50;2.50;;;;;;;24.53;37.95;97548.22;5982189;23;20612;-81
2023/07/07 07:04:31;;;;;;;2.95;2.15;;;;;;;24.82;37.28;97548.13;6008929;23;20577;-81
2023/07/07 07:06:57;;;;;;;3.22;2.28;;;;;;;24.88;37.88;97545.25;6010412;23;20174;-81
2023/07/07 07:09:22;;;;;;;3.22;2.88;;;;;;;24.98;36.88;97536.84;6009410;23;20252;-81
2023/07/07 07:11:48;;;;;;;3.20;2.30;;;;;;;25.16;37.55;97538.22;6012771;23;20251;-81
2023/07/07 07:14:13;;;;;;;3.35;2.20;;;;;;;25.30;36.80;97543.25;5985109;23;20161;-81
2023/07/07 07:16:39;;;;;;;3.08;2.25;;;;;;;25.59;36.31;97547.59;6009268;23;20232;-81
2023/07/07 07:19:05;;;;;;;3.38;2.40;;;;;;;25.82;36.41;97539.13;5985262;23;20652;-81
2023/07/07 07:21:30;;;;;;;2.65;2.45;;;;;;;25.73;35.90;97549.16;6013281;23;20216;-81
2023/07/07 07:23:55;;;;;;;3.58;2.50;;;;;;;25.89;36.31;97546.56;5977293;23;20299;-81
2023/07/07 07:26:27;;;;;;;3.22;2.50;;;;;;;26.09;36.00;97542.25;5979511;23;20124;-81
2023/07/07 07:28:55;;;;;;;2.70;2.50;;;;;;;26.37;36.03;97538.81;5976429;23;20668;-80
2023/07/07 07:31:20;;;;;;;3.10;2.50;;;;;;;26.65;35.19;97552.97;5986910;23;20192;-81
2023/07/07 07:33:51;;;;;;;3.20;2.42;;;;;;;26.86;34.57;97558.09;5980769;23;20419;-81
2023/07/07 07:36:17;;;;;;;2.50;2.30;;;;;;;26.86;34.66;97549.31;5990403;23;20331;-80
2023/07/07 07:38:42;;;;;;;2.00;1.80;;;;;;;27.29;34.19;97545.06;6009546;23;20410;-82
2023/07/07 07:41:08;;;;;;;2.38;2.10;;;;;;;27.33;33.72;97553.19;6025978;23;20551;-81
2023/07/07 07:43:33;;;;;;;2.75;2.47;;;;;;;27.60;33.54;97551.53;6002941;23;20191;-80
2023/07/07 07:45:59;;;;;;;2.67;2.28;;;;;;;27.90;31.21;97551.81;6009534;23;20176;-81
2023/07/07 07:48:24;;;;;;;2.58;2.38;;;;;;;28.15;30.69;97538.22;5976654;23;20157;-80
2023/07/07 07:50:50;;;;;;;2.28;2.08;;;;;;;28.23;31.00;97549.84;5987229;23;20350;-81
2023/07/07 07:53:15;;;;;;;2.95;2.65;;;;;;;28.49;30.79;97549.97;5976061;23;20224;-80
2023/07/07 07:55:41;;;;;;;2.53;2.30;;;;;;;28.64;29.25;97547.63;5976163;23;20108;-80
2023/07/07 07:58:06;;;;;;;3.08;2.60;;;;;;;28.68;29.88;97551.91;5976790;23;20387;-80
2023/07/07 08:00:32;;;;;;;2.47;2.30;;;;;;;29.00;29.76;97540.97;5978853;23;20007;-81
2023/07/07 08:02:57;;;;;;;2.83;2.33;;;;;;;28.83;28.26;97546.81;5999888;23;20181;-80
2023/07/07 08:05:22;;;;;;;2.90;2.70;;;;;;;28.72;28.33;97551.97;6011544;23;20168;-79
2023/07/07 08:07:48;;;;;;;2.78;2.15;;;;;;;28.88;27.38;97551.88;6011219;23;20336;-80
2023/07/07 08:10:14;;;;;;;3.45;2.47;;;;;;;29.03;27.76;97536.81;6012108;23;20446;-81
2023/07/07 08:12:39;;;;;;;2.60;2.10;;;;;;;29.22;27.37;97538.66;6012044;23;20393;-80
2023/07/07 08:15:05;;;;;;;2.78;2.53;;;;;;;29.39;26.76;97550.81;5978226;23;20227;-79
2023/07/07 08:17:31;;;;;;;3.65;2.30;;;;;;;29.65;26.98;97553.53;5987831;23;20319;-79
2023/07/07 08:19:56;;;;;;;2.13;1.92;;;;;;;29.74;25.53;97547.91;5986782;23;20517;-81
2023/07/07 08:22:24;;;;;;;3.13;2.78;;;;;;;30.01;25.06;97554.06;6011505;23;20164;-82
2023/07/07 08:24:53;;;;;;;2.75;2.47;;;;;;;29.84;26.38;97549.22;5987463;23;20236;-82
2023/07/07 08:27:20;;;;;;;2.58;2.38;;;;;;;30.04;25.97;97553.34;6009951;23;20109;-80
2023/07/07 08:29:47;;;;;;;2.40;2.20;;;;;;;30.38;26.27;97547.25;5976909;23;20338;-81
2023/07/07 08:32:17;;;;;;;2.97;2.20;;;;;;;29.96;24.79;97549.00;5979303;23;20175;-82
2023/07/07 08:34:44;;;;;;;2.78;2.58;;;;;;;30.06;25.00;97537.63;6003956;23;20341;-81
2023/07/07 08:37:10;;;;;;;2.85;2.45;;;;;;;30.10;25.74;97558.41;5980522;23;20150;-81
2023/07/07 08:39:36;;;;;;;2.78;2.50;;;;;;;30.05;26.38;97546.81;5957493;23;20386;-82
2023/07/07 08:42:19;;;;;;;3.35;2.47;;;;;;;30.29;25.29;97544.03;6013225;23;20116;-81
2023/07/07 08:44:44;;;;;;;3.00;2.80;;;;;;;30.17;24.76;97542.38;6011982;23;20334;-81
2023/07/07 08:47:48;;;;;;;2.65;2.42;;;;;;;30.68;24.76;97549.88;6012191;23;20243;-80
2023/07/07 08:50:33;;;;;;;3.83;2.63;;;;;;;30.91;25.28;97555.09;6006596;23;20293;-81
2023/07/07 08:53:13;;;;;;;3.20;2.85;;;;;;;31.14;24.45;97548.81;5913650;23;20315;-81
2023/07/07 08:55:57;;;;;;;2.63;2.45;;;;;;;31.35;24.05;97553.59;5880968;23;20390;-81
2023/07/07 08:58:32;;;;;;;3.50;3.13;;;;;;;31.15;24.03;97548.44;6002353;23;20412;-80
2023/07/07 09:01:21;;;;;;;2.92;2.42;;;;;;;31.29;23.46;97542.41;5979261;23;20200;-81
2023/07/07 09:04:10;;;;;;;3.25;2.95;;;;;;;31.13;23.49;97531.88;6001878;23;20465;-81
2023/07/07 09:06:36;;;;;;;2.83;2.63;;;;;;;31.41;23.91;97535.97;6001603;23;20197;-83
2023/07/07 09:09:20;;;;;;;2.83;2.63;;;;;;;31.83;23.76;97545.47;6007039;23;20424;-80
2023/07/07 09:12:21;;;;;;;3.13;2.83;;;;;;;31.71;23.50;97537.72;6003966;23;20281;-81
2023/07/07 09:14:47;;;;;;;2.75;2.55;;;;;;;31.87;23.41;97535.47;5989029;23;20196;-81
2023/07/07 09:17:19;;;;;;;3.88;2.90;;;;;;;31.98;23.61;97526.69;5919909;23;20417;-81
2023/07/07 09:19:45;;;;;;;2.88;2.67;;;;;;;32.18;23.83;97527.97;5976853;23;20414;-80
2023/07/07 09:22:27;;;;;;;3.10;2.90;;;;;;;32.26;23.17;97534.91;5952885;23;20256;-81
2023/07/07 09:25:04;;;;;;;2.97;2.67;;;;;;;32.08;22.17;97517.91;5948162;23;20647;-83
2023/07/07 09:27:35;;;;;;;3.53;2.67;;;;;;;32.14;21.79;97524.50;5947704;23;20180;-82
2023/07/07 09:30:13;;;;;;;4.38;3.25;;;;;;;32.36;21.71;97527.28;5976840;23;20172;-83
2023/07/07 09:32:38;;;;;;;3.25;3.03;;;;;;;32.33;22.92;97522.63;5966192;23;20484;-81
2023/07/07 09:35:04;;;;;;;3.22;2.55;;;;;;;32.70;23.18;97524.28;5967162;23;20542;-81
2023/07/07 09:37:54;;;;;;;3.30;3.10;;;;;;;32.92;20.40;97520.47;5944004;23;20456;-82
2023/07/07 09:40:33;;;;;;;3.90;3.55;;;;;;;33.20;22.13;97525.13;5977445;23;20172;-80
2023/07/07 09:43:18;;;;;;;3.88;3.42;;;;;;;33.22;21.09;97528.19;5976210;23;20176;-81
2023/07/07 09:46:33;;;;;;;3.10;2.90;;;;;;;33.22;20.93;97519.34;5976361;23;20463;-82
2023/07/07 09:49:07;;;;;;;4.45;3.92;;;;;;;33.54;20.36;97519.31;5923397;23;20028;-80
2023/07/07 09:51:46;;;;;;;5.25;3.65;;;;;;;33.80;21.77;97516.59;6011468;23;20222;-82
2023/07/07 09:54:13;;;;;;;3.45;3.10;;;;;;;33.53;21.07;97519.69;6014060;23;20034;-82
2023/07/07 09:56:46;;;;;;;3.65;3.35;;;;;;;33.85;20.54;97505.38;5978776;23;20385;-80
2023/07/07 09:59:26;;;;;;;3.60;3.30;;;;;;;33.69;20.21;97505.78;6011758;23;20240;-81
2023/07/07 10:01:52;;;;;;;3.88;3.58;;;;;;;33.78;21.67;97514.28;6010423;23;20314;-83
2023/07/07 10:04:21;;;;;;;4.50;3.63;;;;;;;33.84;20.53;97506.53;6005859;23;20035;-81
2023/07/07 10:06:49;;;;;;;3.80;3.50;;;;;;;33.70;20.85;97510.06;5981423;23;20115;-82
2023/07/07 10:09:16;;;;;;;4.35;3.45;;;;;;;33.61;21.32;97494.22;6008222;23;20177;-81
2023/07/07 10:11:42;;;;;;;4.15;3.75;;;;;;;32.90;21.08;97506.59;6015772;23;20217;-81
2023/07/07 10:14:11;;;;;;;3.42;3.13;;;;;;;33.48;21.92;97503.91;5982119;23;20504;-81
2023/07/07 10:17:08;;;;;;;3.80;3.10;;;;;;;33.59;21.76;97504.66;5979550;23;20483;-80
2023/07/07 10:19:39;;;;;;;3.75;3.45;;;;;;;34.05;21.92;97501.06;5912659;23;20381;-80
2023/07/07 10:22:05;;;;;;;3.60;3.30;;;;;;;33.89;20.87;97503.44;6000855;23;20190;-81
2023/07/07 10:24:30;;;;;;;3.83;3.53;;;;;;;33.94;21.10;97495.69;6011944;23;20507;-81
2023/07/07 10:26:57;;;;;;;3.80;3.45;;;;;;;33.86;21.88;97488.00;6014850;23;20182;-82
2023/07/07 10:29:26;;;;;;;3.67;3.38;;;;;;;33.62;21.27;97495.75;5979767;23;20385;-80
2023/07/07 10:31:52;;;;;;;3.92;3.60;;;;;;;33.60;22.57;97492.69;5956239;23;20325;-80
2023/07/07 10:34:22;;;;;;;4.57;3.80;;;;;;;33.57;21.26;97496.16;6014100;23;20147;-82
2023/07/07 10:36:48;;;;;;;3.85;3.55;;;;;;;33.85;22.02;97494.56;6038782;23;20230;-81
2023/07/07 10:39:13;;;;;;;3.53;3.22;;;;;;;33.94;22.11;97490.28;5981650;23;20015;-83
2023/07/07 10:41:39;;;;;;;5.07;3.50;;;;;;;34.01;22.17;97483.31;5999231;23;20370;-82
2023/07/07 10:44:04;;;;;;;4.18;3.78;;;;;;;34.27;22.40;97498.28;6014856;23;20312;-82
2023/07/07 10:46:30;;;;;;;4.25;3.85;;;;;;;34.38;22.67;97490.88;5978545;23;20201;-82
2023/07/07 10:48:56;;;;;;;3.67;3.38;;;;;;;34.50;21.50;97492.38;6011140;23;20452;-81
2023/07/07 10:51:28;;;;;;;3.90;3.60;;;;;;;34.66;22.27;97486.47;6002872;23;20200;-82
2023/07/07 10:54:09;;;;;;;4.10;3.70;;;;;;;34.78;21.86;97487.94;5881727;23;20353;-81
2023/07/07 10:56:39;;;;;;;5.25;4.75;;;;;;;34.64;22.07;97486.09;5884706;23;20090;-82
2023/07/07 10:59:32;;;;;;;4.85;4.45;;;;;;;34.63;21.04;97485.31;6001746;23;20232;-81
2023/07/07 11:02:13;;;;;;;4.95;4.55;;;;;;;34.93;22.77;97491.31;5975922;23;20196;-80
2023/07/07 11:04:38;;;;;;;4.68;4.28;;;;;;;35.32;21.51;97495.63;5915501;23;20188;-81
2023/07/07 11:07:16;;;;;;;5.82;5.32;;;;;;;35.19;21.13;97490.69;5916036;23;20419;-81
2023/07/07 11:09:54;;;;;;;4.70;4.30;;;;;;;35.21;21.67;97485.66;5913787;23;20404;-80
2023/07/07 11:12:38;;;;;;;4.80;4.40;;;;;;;35.53;18.81;97489.25;6000098;23;20082;-81
2023/07/07 11:15:03;;;;;;;5.05;4.65;;;;;;;35.47;20.82;97485.44;5882003;23;20184;-82
2023/07/07 11:17:46;;;;;;;4.78;4.30;;;;;;;35.10;21.21;97470.66;5881586;23;20292;-81
2023/07/07 11:20:35;;;;;;;5.45;5.03;;;;;;;35.37;19.64;97487.88;5915731;23;20316;-82
2023/07/07 11:23:14;;;;;;;4.95;4.47;;;;;;;34.99;21.01;97478.88;5880804;23;20352;-80
2023/07/07 11:25:48;;;;;;;5.50;4.93;;;;;;;34.49;20.80;97474.59;5977059;23;20177;-80
2023/07/07 11:28:39;;;;;;;5.20;4.70;;;;;;;34.40;21.70;97466.91;6000415;23;20326;-81
2023/07/07 11:31:29;;;;;;;5.72;5.03;;;;;;;34.13;21.41;97469.34;5916506;23;20138;-83
2023/07/07 11:34:12;;;;;;;6.53;5.93;;;;;;;34.00;21.98;97477.16;6000171;23;20196;-82
2023/07/07 11:36:47;;;;;;;5.13;4.72;;;;;;;33.78;21.01;97465.66;5914858;23;20263;-81
2023/07/07 11:39:35;;;;;;;5.85;5.35;;;;;;;33.52;21.38;97470.34;6010591;23;20311;-81
2023/07/07 11:42:06;;;;;;;5.30;4.80;;;;;;;33.69;23.49;97471.47;5957082;23;20172;-81
2023/07/07 11:44:50;;;;;;;5.45;4.85;;;;;;;33.72;22.68;97475.31;5883225;23;20015;-81